createdAt,value
2023-06-14T03:57:44.572Z,100.00
2023-06-14T04:00:48.720Z,100.00
2023-06-14T04:03:51.380Z,100.00
2023-06-14T04:06:53.645Z,100.00
2023-06-14T04:09:56.584Z,100.00
2023-06-14T04:12:58.744Z,100.00
2023-06-14T04:16:01.280Z,100.00
2023-06-14T04:19:04.378Z,100.00
2023-06-14T04:22:07.034Z,100.00
2023-06-14T04:25:09.855Z,100.00
2023-06-14T04:28:13.535Z,100.00
2023-06-14T04:31:17.711Z,98.93
2023-06-14T04:34:20.572Z,100.00
2023-06-14T04:37:23.534Z,100.00
2023-06-14T04:40:26.266Z,97.92
2023-06-14T04:43:28.901Z,96.87
2023-06-14T04:46:33.617Z,96.14
2023-06-14T04:49:35.900Z,97.11
2023-06-14T04:52:38.366Z,97.36
2023-06-14T04:55:41.897Z,96.32
2023-06-14T04:58:45.442Z,94.46
2023-06-14T05:01:50.642Z,94.45
2023-06-14T05:04:54.467Z,93.49
2023-06-14T05:07:56.716Z,95.72
2023-06-14T05:10:59.394Z,94.55
2023-06-14T05:14:02.564Z,92.79
2023-06-14T05:17:05.476Z,90.47
2023-06-14T05:20:08.394Z,91.73
2023-06-14T05:23:16.179Z,90.38
2023-06-14T05:26:19.061Z,89.68
2023-06-14T05:29:21.543Z,89.32
2023-06-14T05:32:23.787Z,88.86
2023-06-14T05:35:27.857Z,90.06
2023-06-14T05:38:30.096Z,90.47
2023-06-14T05:41:32.695Z,85.37
2023-06-14T05:44:34.855Z,86.52
2023-06-14T05:47:37.863Z,87.12
2023-06-14T05:50:40.164Z,88.89
2023-06-14T05:53:42.692Z,88.13
2023-06-14T05:56:45.006Z,88.01
2023-06-14T05:59:47.456Z,88.08
2023-06-14T06:02:50.076Z,86.33
2023-06-14T06:05:59.241Z,82.67
2023-06-14T06:09:05.982Z,85.46
2023-06-14T06:12:08.628Z,83.50
2023-06-14T06:15:18.417Z,82.00
2023-06-14T06:18:21.514Z,82.55
2023-06-14T06:21:23.779Z,83.87
2023-06-14T06:24:26.332Z,82.96
2023-06-14T06:27:28.628Z,81.34
2023-06-14T06:30:31.339Z,81.26
2023-06-14T06:33:33.524Z,80.89
2023-06-14T06:36:36.229Z,81.40
2023-06-14T06:39:38.502Z,79.23
2023-06-14T06:42:41.105Z,77.36
2023-06-14T06:45:46.612Z,78.08
2023-06-14T06:48:49.007Z,79.44
2023-06-14T06:52:05.185Z,78.68
2023-06-14T06:55:08.095Z,75.39
2023-06-14T06:58:10.919Z,77.69
2023-06-14T07:01:14.355Z,77.83
2023-06-14T07:04:17.297Z,77.41
2023-06-14T07:07:19.956Z,77.53
2023-06-14T07:10:22.495Z,76.55
2023-06-14T07:13:25.253Z,77.04
2023-06-14T07:16:27.943Z,77.72
2023-06-14T07:19:31.774Z,77.77
2023-06-14T07:22:34.383Z,75.18
2023-06-14T07:25:37.021Z,75.35
2023-06-14T07:28:39.271Z,74.18
2023-06-14T07:31:41.709Z,74.10
2023-06-14T07:34:43.869Z,74.02
2023-06-14T07:37:48.009Z,74.25
2023-06-14T07:40:50.267Z,72.61
2023-06-14T07:43:55.149Z,75.09
2023-06-14T07:46:59.353Z,76.95
2023-06-14T07:50:01.877Z,72.96
2023-06-14T07:53:04.484Z,73.17
2023-06-14T07:56:07.545Z,71.97
2023-06-14T07:59:10.077Z,73.49
2023-06-14T08:02:12.595Z,71.67
2023-06-14T08:05:15.513Z,71.72
2023-06-14T08:08:18.000Z,68.34
2023-06-14T08:11:20.453Z,69.82
2023-06-14T08:14:22.975Z,69.97
2023-06-14T08:17:25.955Z,70.46
2023-06-14T08:20:28.129Z,70.20
2023-06-14T08:23:30.595Z,68.96
2023-06-14T08:26:33.035Z,66.10
2023-06-14T08:29:35.477Z,68.12
2023-06-14T08:32:38.573Z,66.85
2023-06-14T08:35:41.329Z,69.05
2023-06-14T08:38:46.545Z,70.85
2023-06-14T08:41:52.543Z,72.18
2023-06-14T08:44:54.852Z,70.37
2023-06-14T08:48:00.690Z,68.95
2023-06-14T08:51:08.284Z,66.68
2023-06-14T08:54:13.267Z,68.87
2023-06-14T08:57:16.306Z,69.23
2023-06-14T09:00:21.737Z,70.16
2023-06-14T09:03:30.860Z,69.33
2023-06-14T09:06:34.154Z,66.02
2023-06-14T09:09:40.364Z,65.81
2023-06-14T09:12:43.587Z,64.86
2023-06-14T09:15:46.013Z,65.24
2023-06-14T09:18:49.215Z,64.47
2023-06-14T09:21:53.942Z,65.73
2023-06-14T09:24:56.514Z,63.99
2023-06-14T09:27:58.854Z,64.47
2023-06-14T09:31:02.263Z,61.87
2023-06-14T09:34:04.668Z,60.47
2023-06-14T09:37:07.519Z,63.49
2023-06-14T09:40:11.031Z,63.82
2023-06-14T09:43:13.794Z,63.60
2023-06-14T09:46:18.180Z,62.25
2023-06-14T09:49:20.836Z,63.56
2023-06-14T09:52:27.885Z,62.94
2023-06-14T09:55:32.358Z,57.73
2023-06-14T09:58:40.173Z,56.90
2023-06-14T10:01:44.028Z,58.03
2023-06-14T10:05:13.708Z,59.59
2023-06-14T10:08:19.098Z,61.02
2023-06-14T10:11:22.049Z,61.34
2023-06-14T10:14:24.753Z,57.52
2023-06-14T10:17:41.033Z,55.82
2023-06-14T10:20:55.153Z,56.54
2023-06-14T10:24:02.312Z,53.01
2023-06-14T10:27:11.239Z,56.24
2023-06-14T10:30:16.351Z,56.32
2023-06-14T10:33:18.934Z,52.33
2023-06-14T10:36:28.887Z,51.58
2023-06-14T10:39:32.608Z,49.32
2023-06-14T10:42:35.189Z,49.93
2023-06-14T10:45:37.481Z,46.95
2023-06-14T10:48:45.217Z,45.84
2023-06-14T10:51:52.850Z,44.83
2023-06-14T10:55:16.370Z,45.81
2023-06-14T10:58:38.351Z,44.89
2023-06-14T11:02:05.820Z,44.55
2023-06-14T11:05:16.460Z,42.71
2023-06-14T11:08:53.270Z,41.86
2023-06-14T11:11:57.820Z,38.09
2023-06-14T11:15:00.660Z,36.79
2023-06-14T11:18:07.268Z,37.36
2023-06-14T11:21:09.892Z,34.18
2023-06-14T11:24:13.295Z,33.06
2023-06-14T11:27:16.387Z,33.70
2023-06-14T11:30:19.282Z,32.57
2023-06-14T11:33:23.733Z,31.78
2023-06-14T11:36:31.892Z,31.36
2023-06-14T11:39:35.758Z,28.81
2023-06-14T11:42:40.785Z,30.84
2023-06-14T11:45:47.129Z,32.31
2023-06-14T11:48:54.712Z,32.44
2023-06-14T11:51:57.490Z,35.99
2023-06-14T11:55:00.190Z,35.29
2023-06-14T11:58:02.870Z,34.19
2023-06-14T12:01:05.416Z,36.24
2023-06-14T12:04:08.118Z,36.30
2023-06-14T12:07:16.715Z,36.36
2023-06-14T12:10:19.340Z,35.06
2023-06-14T12:13:21.581Z,34.48
2023-06-14T12:16:31.820Z,34.77
2023-06-14T12:19:34.465Z,38.27
2023-06-14T12:22:36.915Z,37.94
2023-06-14T12:25:41.219Z,41.48
2023-06-14T12:28:47.982Z,39.57
2023-06-14T12:31:50.468Z,38.42
2023-06-14T12:34:52.972Z,36.42
2023-06-14T12:41:29.892Z,40.09
2023-06-14T12:44:35.135Z,38.73
2023-06-14T12:47:37.647Z,38.75
2023-06-14T12:50:40.221Z,39.64
2023-06-14T12:53:45.855Z,39.25
2023-06-14T12:56:48.508Z,37.64
2023-06-14T12:59:50.706Z,37.55
2023-06-14T13:02:53.329Z,38.58
2023-06-14T13:05:56.062Z,39.82
2023-06-14T13:09:00.098Z,39.40
2023-06-14T13:12:02.570Z,41.02
2023-06-14T13:15:05.587Z,41.68
2023-06-14T13:18:07.968Z,43.12
2023-06-14T13:21:10.417Z,45.79
2023-06-14T13:24:12.688Z,44.79
2023-06-14T13:27:16.190Z,44.80
2023-06-14T13:30:18.840Z,45.80
2023-06-14T13:33:21.515Z,44.33
2023-06-14T13:36:23.785Z,44.41
2023-06-14T13:39:26.994Z,44.82
2023-06-14T13:42:32.348Z,45.53
2023-06-14T13:45:34.907Z,45.01
2023-06-14T13:48:37.072Z,47.10
2023-06-14T13:51:39.661Z,44.40
2023-06-14T13:54:43.444Z,44.63
2023-06-14T13:57:46.500Z,45.10
2023-06-14T14:00:48.647Z,44.78
2023-06-14T14:03:51.333Z,44.61
2023-06-14T14:06:53.511Z,44.76
2023-06-14T14:09:58.471Z,44.99
2023-06-14T14:13:00.760Z,45.10
2023-06-14T14:16:04.342Z,44.32
2023-06-14T14:19:07.838Z,43.94
2023-06-14T14:22:10.506Z,45.04
2023-06-14T14:25:12.777Z,44.75
2023-06-14T14:28:17.027Z,46.36
2023-06-14T14:31:19.684Z,44.88
2023-06-14T14:34:22.193Z,45.74
2023-06-14T14:37:24.328Z,43.03
2023-06-14T14:40:27.499Z,43.85
2023-06-14T14:43:33.436Z,44.12
2023-06-14T14:46:36.218Z,44.89
2023-06-14T14:49:38.490Z,44.78
2023-06-14T14:52:40.916Z,44.20
2023-06-14T14:55:44.172Z,45.22
2023-06-14T14:58:46.619Z,43.53
2023-06-14T15:01:49.106Z,44.05
2023-06-14T15:04:51.571Z,45.74
2023-06-14T15:07:53.779Z,45.36
2023-06-14T15:10:56.235Z,48.11
2023-06-14T15:13:58.630Z,46.08
2023-06-14T15:17:02.790Z,46.11
2023-06-14T15:20:07.097Z,45.75
2023-06-14T15:23:09.610Z,45.76
2023-06-14T15:26:11.792Z,48.75
2023-06-14T15:29:14.217Z,45.34
2023-06-14T15:32:16.434Z,44.23
